Time;durP1;ratioP1;P1;durP2;ratioP2;P2;SDS_P1;SDS_P2;PMS_P1;PMS_P2;Temp;Humidity;BMP_temperature;BMP_pressure;BME280_temperature;BME280_humidity;BME280_pressure;Samples;Min_cycle;Max_cycle;Signal;HPM_P1;HPM_P2
2022/01/22 00:00:00;;;;;;;;;16.75;15.75;;;;;6.66;61.50;103042.22;5127082;27;45237;-79
2022/01/22 00:02:26;;;;;;;;;14.75;14.75;;;;;6.52;61.56;103012.59;5132267;27;45545;-79
2022/01/22 00:04:51;;;;;;;;;14.50;13.75;;;;;6.58;61.82;103031.28;5127552;27;45237;-78
2022/01/22 00:07:17;;;;;;;;;16.50;16.50;;;;;6.41;62.30;103004.88;5132419;27;45453;-79
2022/01/22 00:09:50;;;;;;;;;20.00;15.25;;;;;6.64;62.54;103038.63;5128560;27;45364;-79
2022/01/22 00:12:28;;;;;;;;;23.00;16.25;;;;;6.64;62.74;103037.72;5120651;27;45427;-79
2022/01/22 00:14:53;;;;;;;;;21.50;19.00;;;;;6.53;62.24;103008.28;5135725;27;45343;-80
2022/01/22 00:17:19;;;;;;;;;14.00;14.00;;;;;6.60;62.33;103025.22;5130934;27;45340;-79
2022/01/22 00:19:44;;;;;;;;;23.00;18.00;;;;;6.29;62.43;102966.69;5125889;27;45587;-83
2022/01/22 00:22:09;;;;;;;;;21.00;19.75;;;;;6.65;62.21;103032.56;5121156;27;45557;-79
2022/01/22 00:24:38;;;;;;;;;18.00;13.50;;;;;6.68;62.18;103032.72;5130823;27;45469;-83
2022/01/22 00:27:05;;;;;;;;;14.75;13.75;;;;;6.70;62.64;103030.19;5128195;27;45588;-83
2022/01/22 00:29:30;;;;;;;;;11.50;11.00;;;;;6.54;61.47;103002.22;5126641;27;45350;-82
2022/01/22 00:31:56;;;;;;;;;31.00;26.00;;;;;6.05;61.83;102901.50;5128023;27;45289;-81
2022/01/22 00:34:21;;;;;;;;;19.25;17.00;;;;;6.34;62.43;102966.09;5128863;27;45442;-82
2022/01/22 00:36:47;;;;;;;;;16.25;16.00;;;;;6.50;62.61;102984.50;5126049;27;45255;-82
2022/01/22 00:39:12;;;;;;;;;14.25;14.25;;;;;6.35;61.70;102963.56;5144250;27;44704;-82
2022/01/22 00:41:37;;;;;;;;;15.75;13.00;;;;;6.58;62.59;102993.72;5142981;27;45108;-82
2022/01/22 00:44:04;;;;;;;;;14.00;14.00;;;;;6.53;62.06;102987.31;5109688;27;45190;-81
2022/01/22 00:46:29;;;;;;;;;13.50;13.00;;;;;6.60;61.64;102999.03;5131156;27;46946;-82
2022/01/22 00:48:55;;;;;;;;;19.75;16.00;;;;;6.66;62.48;103007.28;5154643;27;45336;-79
2022/01/22 00:51:21;;;;;;;;;14.25;14.25;;;;;6.44;62.44;102976.28;5145458;27;44813;-80
2022/01/22 00:53:46;;;;;;;;;12.50;12.50;;;;;6.66;62.73;103020.38;5151560;27;46102;-80
2022/01/22 00:56:13;;;;;;;;;12.00;11.50;;;;;6.57;62.70;103008.53;5143412;27;45061;-80
2022/01/22 00:58:38;;;;;;;;;14.50;12.75;;;;;6.63;61.96;103018.47;5160745;27;44809;-81
2022/01/22 01:01:04;;;;;;;;;11.75;11.75;;;;;6.41;62.39;102992.69;5145941;27;46626;-80
2022/01/22 01:03:33;;;;;;;;;13.00;13.00;;;;;6.46;62.92;102990.38;5132384;27;44793;-79
2022/01/22 01:05:59;;;;;;;;;11.50;9.50;;;;;6.53;62.59;102996.06;5101403;27;45615;-80
2022/01/22 01:08:27;;;;;;;;;18.50;15.50;;;;;6.55;62.60;103006.63;5115198;27;45502;-80
2022/01/22 01:11:09;;;;;;;;;22.50;18.25;;;;;6.67;62.65;103020.47;5120821;27;45447;-82
2022/01/22 01:13:41;;;;;;;;;18.50;17.00;;;;;6.43;62.00;102970.16;5125470;27;45361;-83
2022/01/22 01:16:44;;;;;;;;;15.00;15.00;;;;;6.70;62.90;103018.03;5108312;27;46185;-81
2022/01/22 01:33:17;;;;;;;;;14.75;10.00;;;;;6.49;63.27;102975.75;5098760;27;45463;-80
2022/01/22 01:35:40;;;;;;;;;16.25;16.25;;;;;6.37;63.05;102955.78;5114563;27;45491;-82
2022/01/22 01:38:07;;;;;;;;;13.25;11.00;;;;;6.47;62.85;102974.75;5114100;27;45307;-81
2022/01/22 01:40:36;;;;;;;;;10.75;10.75;;;;;6.51;62.96;102971.53;5102094;27;45426;-80
2022/01/22 01:43:10;;;;;;;;;10.75;9.75;;;;;6.56;63.13;102977.00;5100287;27;45307;-80
2022/01/22 01:45:35;;;;;;;;;13.00;11.00;;;;;6.45;62.32;102962.38;5100098;27;45425;-79
2022/01/22 01:48:07;;;;;;;;;13.50;13.50;;;;;6.63;62.60;102996.63;5098960;27;45844;-82
2022/01/22 01:50:36;;;;;;;;;14.25;11.00;;;;;6.54;62.49;102978.66;5099100;27;45211;-80
2022/01/22 01:53:12;;;;;;;;;11.00;10.25;;;;;6.64;63.09;102996.72;5103926;27;45266;-83
2022/01/22 01:58:13;;;;;;;;;18.50;15.50;;;;;6.66;62.77;102996.78;5118434;27;45389;-83
2022/01/22 02:00:39;;;;;;;;;14.00;11.50;;;;;6.57;62.74;102976.19;5118939;27;45304;-80
2022/01/22 02:03:05;;;;;;;;;17.50;14.25;;;;;6.60;63.04;102986.84;5126941;27;45328;-80
2022/01/22 02:05:32;;;;;;;;;15.25;14.00;;;;;6.68;62.27;103000.41;5139988;27;45234;-81
2022/01/22 02:07:58;;;;;;;;;19.00;13.25;;;;;6.72;63.11;103010.28;5123274;27;46420;-79
2022/01/22 02:10:25;;;;;;;;;23.50;16.75;;;;;6.70;62.82;103004.94;5117943;27;45513;-81
2022/01/22 02:23:39;;;;;;;;;18.25;12.75;;;;;6.67;62.34;102990.75;5119004;27;45388;-82
2022/01/22 02:26:08;;;;;;;;;13.25;13.25;;;;;6.59;62.68;102977.19;5118821;27;45378;-81
2022/01/22 02:28:34;;;;;;;;;16.00;13.25;;;;;6.67;62.90;102990.75;5130266;27;45481;-82
2022/01/22 02:31:09;;;;;;;;;14.75;11.50;;;;;6.58;62.69;102976.28;5118429;27;45234;-82
2022/01/22 02:36:21;;;;;;;;;18.50;14.00;;;;;6.57;63.55;102976.19;5118669;27;45209;-81
2022/01/22 02:38:56;;;;;;;;;15.75;15.25;;;;;6.63;62.94;102983.53;5120330;27;45582;-82
2022/01/22 02:41:24;;;;;;;;;16.00;12.00;;;;;6.73;62.77;102996.34;5118246;27;45179;-83
2022/01/22 02:43:52;;;;;;;;;16.25;15.00;;;;;6.72;62.38;102994.56;5117834;27;45399;-81
2022/01/22 02:46:22;;;;;;;;;16.25;16.25;;;;;6.73;62.59;102988.50;5124580;27;45547;-80
2022/01/22 02:48:47;;;;;;;;;15.50;13.25;;;;;6.53;63.07;102958.50;5110868;27;47838;-81
2022/01/22 02:51:13;;;;;;;;;16.00;14.50;;;;;6.56;63.34;102966.53;5118455;27;45308;-81
2022/01/22 02:53:38;;;;;;;;;16.25;15.25;;;;;6.49;63.17;102949.56;5118321;27;45472;-81
2022/01/22 02:56:04;;;;;;;;;18.00;13.75;;;;;6.67;63.15;102986.41;5118456;27;45356;-82
2022/01/22 02:58:29;;;;;;;;;16.25;16.00;;;;;6.61;63.46;102970.34;5118988;27;45522;-81
2022/01/22 03:00:55;;;;;;;;;16.25;16.00;;;;;6.70;63.24;102984.00;5119985;27;45378;-82
2022/01/22 03:03:20;;;;;;;;;11.25;11.00;;;;;6.51;63.65;102947.03;5131506;27;45297;-79
2022/01/22 03:05:46;;;;;;;;;16.50;14.50;;;;;6.37;63.30;102916.53;5118101;27;45353;-81
2022/01/22 03:08:13;;;;;;;;;18.25;16.00;;;;;6.70;63.28;102977.81;5117915;27;46334;-82
2022/01/22 03:10:39;;;;;;;;;18.00;17.00;;;;;6.72;63.25;102984.97;5132207;27;45407;-82
2022/01/22 03:18:44;;;;;;;;;17.50;15.25;;;;;6.43;63.12;102923.03;5120163;27;46275;-82
2022/01/22 03:21:25;;;;;;;;;14.25;12.00;;;;;6.60;63.81;102965.91;5134765;27;45394;-82
2022/01/22 03:29:30;;;;;;;;;15.75;12.75;;;;;6.46;63.96;102936.28;5121096;27;45311;-83
2022/01/22 03:31:56;;;;;;;;;10.75;9.75;;;;;6.71;63.55;102977.03;5136999;27;45465;-81
2022/01/22 03:34:21;;;;;;;;;12.75;11.75;;;;;6.61;64.26;102959.88;5138496;27;45439;-80
2022/01/22 03:36:47;;;;;;;;;14.50;11.50;;;;;6.59;63.01;102953.63;5123607;27;45511;-83
2022/01/22 03:39:12;;;;;;;;;16.00;15.00;;;;;6.64;63.95;102970.53;5121992;27;47326;-84
2022/01/22 03:41:38;;;;;;;;;12.75;11.25;;;;;6.61;63.31;102972.97;5119865;27;45498;-84
2022/01/22 03:44:05;;;;;;;;;18.50;13.75;;;;;6.71;63.97;102991.03;5141977;27;45272;-79
2022/01/22 03:46:32;;;;;;;;;11.00;11.00;;;;;6.70;63.35;102997.09;5125486;27;46042;-82
2022/01/22 03:48:58;;;;;;;;;8.50;7.75;;;;;6.53;63.84;102964.66;5141964;27;45313;-82
2022/01/22 03:51:24;;;;;;;;;11.50;11.50;;;;;6.73;63.61;102994.63;5132943;27;45172;-81
2022/01/22 03:53:49;;;;;;;;;17.75;15.00;;;;;6.32;64.10;102918.84;5122663;27;45718;-83
2022/01/22 03:56:15;;;;;;;;;14.50;14.25;;;;;6.75;63.36;102993.00;5139303;27;45518;-82
2022/01/22 03:58:43;;;;;;;;;13.50;13.50;;;;;6.59;63.42;102964.09;5139661;27;45410;-82
2022/01/22 04:02:00;;;;;;;;;16.50;14.25;;;;;6.46;63.91;102938.00;5122579;27;45449;-83
2022/01/22 04:04:18;;;;;;;;;16.00;13.50;;;;;6.34;63.39;102921.59;5120624;27;45351;-83
2022/01/22 04:09:18;;;;;;;;;12.75;11.25;;;;;6.43;63.85;102943.97;5128134;27;45245;-81
2022/01/22 04:11:45;;;;;;;;;19.25;15.50;;;;;6.41;64.11;102931.59;5129221;27;45684;-83
2022/01/22 04:14:25;;;;;;;;;23.25;14.50;;;;;6.35;64.03;102916.44;5136295;27;45403;-82
2022/01/22 04:17:22;;;;;;;;;14.00;14.00;;;;;6.61;64.17;102948.47;5141772;27;45206;-84
2022/01/22 04:25:21;;;;;;;;;20.00;16.75;;;;;6.70;63.81;102976.13;5133903;27;45304;-81
2022/01/22 04:27:48;;;;;;;;;16.50;16.50;;;;;6.62;64.80;102964.28;5138536;27;45452;-83
2022/01/22 04:30:14;;;;;;;;;18.75;15.50;;;;;6.55;64.54;102947.31;5120278;27;45323;-83
2022/01/22 04:32:39;;;;;;;;;17.50;14.50;;;;;6.64;64.33;102967.91;5120181;27;45403;-82
2022/01/22 04:35:05;;;;;;;;;16.50;16.00;;;;;6.60;64.39;102955.41;5122382;27;45429;-81
2022/01/22 04:37:30;;;;;;;;;20.50;16.00;;;;;6.57;64.84;102947.41;5120390;27;45274;-83
2022/01/22 04:39:56;;;;;;;;;15.75;13.00;;;;;6.65;64.80;102953.09;5127239;27;45388;-82
2022/01/22 04:42:23;;;;;;;;;20.25;13.50;;;;;6.55;64.65;102941.16;5136972;27;45246;-83
2022/01/22 04:44:59;;;;;;;;;19.50;16.50;;;;;6.73;63.95;102978.91;5135698;27;45542;-83
2022/01/22 04:47:36;;;;;;;;;14.75;13.00;;;;;6.56;64.11;102953.44;5121896;27;45558;-79
2022/01/22 04:55:32;;;;;;;;;23.25;20.75;;;;;6.69;64.46;102981.25;5130644;27;45478;-81
2022/01/22 04:57:57;;;;;;;;;28.00;24.00;;;;;6.70;63.99;102975.19;5128486;27;45542;-82
2022/01/22 05:00:24;;;;;;;;;22.25;20.50;;;;;6.61;63.54;102962.50;5139391;27;45507;-83
2022/01/22 05:02:50;;;;;;;;;31.50;26.50;;;;;6.63;64.06;102967.81;5121629;27;45415;-82
2022/01/22 05:05:16;;;;;;;;;30.75;29.00;;;;;6.69;63.57;102976.91;5120091;27;45305;-82
2022/01/22 05:07:41;;;;;;;;;24.75;22.50;;;;;6.54;64.36;102957.69;5120429;27;45194;-82
2022/01/22 05:10:08;;;;;;;;;22.75;22.75;;;;;6.29;64.50;102919.56;5119271;27;46394;-82
2022/01/22 05:12:34;;;;;;;;;28.50;25.25;;;;;6.39;64.28;102949.81;5119628;27;45352;-83
2022/01/22 05:14:59;;;;;;;;;27.00;24.25;;;;;6.48;64.09;102968.69;5138499;27;45687;-83
2022/01/22 05:17:24;;;;;;;;;26.00;22.75;;;;;6.40;64.11;102953.34;5140622;27;45390;-83
2022/01/22 05:19:56;;;;;;;;;22.00;21.50;;;;;6.33;65.09;102935.47;5131758;27;45532;-83
2022/01/22 05:25:04;;;;;;;;;27.75;24.75;;;;;6.63;64.94;102980.91;5120651;27;45480;-82
2022/01/22 05:27:54;;;;;;;;;22.50;20.25;;;;;6.37;64.46;102940.09;5120516;27;45275;-82
2022/01/22 05:38:13;;;;;;;;;30.50;27.00;;;;;6.42;64.68;102967.41;5119800;27;45334;-82
2022/01/22 05:40:38;;;;;;;;;23.25;23.25;;;;;6.44;64.58;102971.97;5120263;27;45157;-83
2022/01/22 05:43:04;;;;;;;;;27.50;24.75;;;;;6.53;64.31;102990.84;5118965;27;45247;-80
2022/01/22 05:45:30;;;;;;;;;26.25;23.50;;;;;6.41;64.26;102970.84;5119538;27;45459;-80
2022/01/22 05:47:56;;;;;;;;;29.00;25.00;;;;;6.27;63.91;102946.47;5118495;27;45569;-80
2022/01/22 05:50:59;;;;;;;;;33.00;28.25;;;;;6.44;64.76;102968.44;5124078;27;45398;-82
2022/01/22 05:53:46;;;;;;;;;32.75;29.75;;;;;6.52;64.04;102983.81;5121338;27;45435;-82
2022/01/22 06:01:17;;;;;;;;;21.00;21.00;;;;;6.56;64.82;102984.88;5135402;27;45743;-81
2022/01/22 06:03:43;;;;;;;;;27.25;26.75;;;;;6.38;64.64;102958.50;5123252;27;45574;-78
2022/01/22 06:06:09;;;;;;;;;34.00;24.75;;;;;6.56;64.14;102987.50;5120362;27;45482;-82
2022/01/22 06:08:41;;;;;;;;;31.00;25.25;;;;;6.47;63.81;102968.63;5125412;27;45332;-80
2022/01/22 06:11:09;;;;;;;;;30.00;25.25;;;;;6.46;64.29;102979.91;5128506;27;45945;-84
2022/01/22 06:13:46;;;;;;;;;27.00;24.75;;;;;6.63;64.60;102999.25;5118877;27;45502;-80
2022/01/22 06:16:22;;;;;;;;;21.75;21.75;;;;;6.42;65.20;102963.13;5118699;27;45275;-82
2022/01/22 06:18:49;;;;;;;;;26.00;24.75;;;;;6.68;64.51;103001.31;5118376;27;45479;-83
2022/01/22 06:21:15;;;;;;;;;29.50;28.50;;;;;6.69;63.82;103002.22;5118254;27;46033;-81
2022/01/22 06:23:41;;;;;;;;;30.00;26.25;;;;;6.67;64.06;103002.13;5119069;27;45475;-81
2022/01/22 06:26:08;;;;;;;;;32.50;30.25;;;;;6.59;64.15;102995.53;5117991;27;45441;-80
2022/01/22 06:28:35;;;;;;;;;30.25;28.00;;;;;6.27;64.40;102951.72;5133904;27;45326;-80
2022/01/22 06:31:02;;;;;;;;;26.75;21.00;;;;;6.40;65.11;102964.72;5120026;27;45998;-79
2022/01/22 06:33:27;;;;;;;;;30.00;28.25;;;;;6.58;64.79;102985.88;5139171;27;45378;-80
2022/01/22 06:35:53;;;;;;;;;30.25;26.25;;;;;6.68;64.18;102997.78;5128824;27;45309;-79
2022/01/22 06:38:19;;;;;;;;;33.25;29.75;;;;;6.55;64.06;102973.50;5118200;27;45318;-79
2022/01/22 06:43:31;;;;;;;;;33.25;27.00;;;;;6.66;64.12;103000.31;5135632;27;45228;-81
2022/01/22 06:45:57;;;;;;;;;31.00;25.50;;;;;6.68;64.81;103003.03;5118007;27;45167;-81
2022/01/22 06:48:23;;;;;;;;;31.00;29.00;;;;;6.66;64.52;102991.56;5120407;27;45242;-83
2022/01/22 06:50:49;;;;;;;;;30.75;25.75;;;;;6.57;64.53;102981.44;5121739;27;46277;-83
2022/01/22 06:53:15;;;;;;;;;50.00;40.25;;;;;6.68;64.68;103008.25;5133009;27;45431;-82
2022/01/22 06:55:45;;;;;;;;;27.50;27.50;;;;;6.74;64.78;103020.00;5121713;27;45609;-83
2022/01/22 06:58:11;;;;;;;;;40.00;26.75;;;;;6.71;65.12;103012.00;5121790;27;45180;-82
2022/01/22 07:00:36;;;;;;;;;31.25;26.00;;;;;6.56;64.46;102990.09;5126003;27;46492;-82
2022/01/22 07:03:03;;;;;;;;;29.25;28.50;;;;;6.74;65.16;103020.00;5127183;27;45336;-81
2022/01/22 07:05:28;;;;;;;;;38.25;29.00;;;;;6.45;64.45;102971.16;5123583;27;45202;-81
2022/01/22 07:07:54;;;;;;;;;31.50;28.00;;;;;6.44;64.84;102965.81;5142401;27;45469;-82
2022/01/22 07:10:20;;;;;;;;;35.50;33.50;;;;;6.43;64.90;102961.41;5140094;27;46489;-82
2022/01/22 07:12:45;;;;;;;;;35.25;29.50;;;;;6.72;64.61;103005.94;5122038;27;45427;-81
2022/01/22 07:15:11;;;;;;;;;36.75;27.50;;;;;6.37;64.52;102958.41;5133013;27;45839;-83
2022/01/22 07:17:39;;;;;;;;;28.75;25.25;;;;;6.63;64.74;103004.47;5126059;27;45245;-82
2022/01/22 07:20:10;;;;;;;;;34.50;30.75;;;;;6.62;64.99;102993.09;5121054;27;45504;-83
2022/01/22 07:22:49;;;;;;;;;29.00;25.00;;;;;6.76;65.00;103018.38;5121038;27;45341;-81
2022/01/22 07:25:15;;;;;;;;;30.00;29.00;;;;;6.79;65.03;103022.88;5127859;27;45513;-82
2022/01/22 07:27:40;;;;;;;;;28.00;24.25;;;;;6.64;65.01;102993.19;5132712;27;45303;-81
2022/01/22 07:30:06;;;;;;;;;34.00;31.00;;;;;6.72;64.42;103005.94;5125426;27;46545;-81
2022/01/22 07:32:36;;;;;;;;;30.25;28.00;;;;;6.72;64.65;103011.16;5131430;27;45617;-81
2022/01/22 07:35:03;;;;;;;;;28.75;27.50;;;;;6.80;64.38;103033.50;5129343;27;45361;-80
2022/01/22 07:37:29;;;;;;;;;33.50;30.75;;;;;6.58;64.92;102991.09;5124675;27;45421;-82
2022/01/22 07:39:54;;;;;;;;;35.25;32.00;;;;;6.68;64.34;103003.03;5121296;27;45500;-82
2022/01/22 07:42:19;;;;;;;;;31.25;26.25;;;;;6.68;64.32;103003.03;5122859;27;45746;-80
2022/01/22 07:44:45;;;;;;;;;38.25;33.00;;;;;6.70;64.55;103009.25;5134965;27;45408;-80
2022/01/22 07:47:11;;;;;;;;;33.00;30.75;;;;;6.68;64.58;102996.06;5120373;27;45469;-83
2022/01/22 07:49:36;;;;;;;;;32.75;29.50;;;;;6.47;65.27;102968.63;5130615;27;46087;-82
2022/01/22 07:52:02;;;;;;;;;25.75;24.75;;;;;6.60;64.62;102992.09;5125840;27;45298;-80
2022/01/22 07:54:28;;;;;;;;;29.75;29.50;;;;;6.78;64.10;103022.00;5121798;27;45428;-81
2022/01/22 07:56:53;;;;;;;;;32.25;30.25;;;;;6.65;64.84;102992.38;5119946;27;45387;-82
2022/01/22 07:59:19;;;;;;;;;33.25;28.75;;;;;6.67;64.37;102998.59;5119018;27;46199;-82
2022/01/22 08:01:44;;;;;;;;;30.50;28.25;;;;;6.92;64.47;103040.25;5124474;27;45459;-81
2022/01/22 08:04:10;;;;;;;;;32.50;28.25;;;;;6.49;64.42;102980.97;5109619;27;45519;-79
2022/01/22 08:06:36;;;;;;;;;35.25;28.50;;;;;6.65;65.21;103010.72;5099559;27;45526;-83
2022/01/22 08:09:01;;;;;;;;;27.75;27.75;;;;;6.94;64.37;103043.88;5108186;27;46055;-80
2022/01/22 08:11:26;;;;;;;;;31.75;26.75;;;;;6.47;64.21;102958.13;5115997;27;45412;-81
2022/01/22 08:13:52;;;;;;;;;32.50;30.50;;;;;6.78;64.19;103022.00;5120439;27;45313;-82
2022/01/22 08:16:17;;;;;;;;;33.50;25.25;;;;;6.85;64.71;103038.97;5120880;27;45382;-80
2022/01/22 08:18:42;;;;;;;;;30.25;30.25;;;;;6.83;64.34;103027.53;5120854;27;46313;-82
2022/01/22 08:21:08;;;;;;;;;31.50;28.25;;;;;6.98;64.17;103054.63;5104802;27;45434;-81
2022/01/22 08:23:33;;;;;;;;;35.25;30.75;;;;;6.88;64.18;103038.25;5115598;27;45430;-79
2022/01/22 08:25:59;;;;;;;;;33.00;29.25;;;;;6.86;65.06;103036.44;5115415;27;45289;-79
2022/01/22 08:31:24;;;;;;;;;30.50;26.00;;;;;6.99;64.09;103055.53;5120368;27;45384;-80
2022/01/22 08:36:35;;;;;;;;;31.75;30.75;;;;;7.03;65.23;103057.50;5120458;27;45224;-80
2022/01/22 08:39:01;;;;;;;;;37.25;34.50;;;;;7.10;64.38;103076.31;5107337;27;45382;-80
2022/01/22 08:41:27;;;;;;;;;32.50;29.50;;;;;7.09;64.70;103063.13;5107526;27;45384;-80
2022/01/22 08:43:54;;;;;;;;;30.75;27.00;;;;;7.02;64.82;103054.00;5109741;27;45466;-78
2022/01/22 08:46:20;;;;;;;;;35.25;29.50;;;;;7.11;64.84;103074.59;5092708;27;45494;-81
2022/01/22 08:48:45;;;;;;;;;31.75;27.75;;;;;6.76;64.84;103017.47;5104692;27;45559;-80
2022/01/22 08:51:12;;;;;;;;;30.50;27.25;;;;;7.13;64.87;103081.72;5109618;27;45546;-79
2022/01/22 08:53:38;;;;;;;;;31.50;27.50;;;;;6.93;64.54;103042.06;5118512;27;45287;-81
2022/01/22 08:56:05;;;;;;;;;30.25;29.25;;;;;7.01;64.76;103053.91;5114511;27;45317;-78
2022/01/22 08:58:31;;;;;;;;;30.75;29.75;;;;;7.10;64.24;103059.69;5114774;27;46496;-82
2022/01/22 09:00:57;;;;;;;;;35.00;30.75;;;;;7.24;63.99;103087.59;5110796;27;45509;-82
2022/01/22 09:03:23;;;;;;;;;26.50;24.25;;;;;7.26;63.93;103100.78;5106275;27;46438;-85
2022/01/22 09:05:49;;;;;;;;;33.50;29.00;;;;;7.26;63.80;103103.41;5087267;27;45639;-80
2022/01/22 09:08:15;;;;;;;;;32.50;32.50;;;;;7.07;64.48;103064.72;5102874;27;46833;-85
2022/01/22 09:10:42;;;;;;;;;34.25;31.50;;;;;6.94;64.36;103039.53;5115313;27;45554;-84
2022/01/22 09:13:08;;;;;;;;;31.75;30.75;;;;;7.29;64.23;103103.63;5124532;27;45213;-81
2022/01/22 09:15:33;;;;;;;;;39.75;36.00;;;;;7.11;63.55;103069.34;5106293;27;45468;-83
2022/01/22 09:17:59;;;;;;;;;31.75;30.25;;;;;7.05;63.82;103054.16;5093636;27;47987;-80
2022/01/22 09:23:18;;;;;;;;;30.50;27.50;;;;;7.30;64.08;103090.59;5072369;27;45522;-78
2022/01/22 09:25:45;;;;;;;;;34.75;27.75;;;;;7.27;63.61;103089.53;5067857;27;45502;-76
2022/01/22 09:28:21;;;;;;;;;29.75;27.25;;;;;7.34;64.00;103102.16;5068221;27;45613;-77
2022/01/22 09:30:47;;;;;;;;;32.75;31.25;;;;;7.28;63.57;103092.22;5066823;27;45561;-78
2022/01/22 09:33:14;;;;;;;;;31.00;28.50;;;;;7.36;63.52;103109.31;5053377;28;45500;-81
2022/01/22 09:35:43;;;;;;;;;40.75;37.00;;;;;7.14;62.91;103074.75;5070135;28;45365;-81
2022/01/22 09:38:09;;;;;;;;;36.75;29.75;;;;;6.74;62.70;103006.03;5072399;27;45542;-83
2022/01/22 09:40:35;;;;;;;;;41.75;34.75;;;;;7.45;62.55;103121.16;5071040;27;45661;-82
2022/01/22 09:43:00;;;;;;;;;36.00;34.00;;;;;7.15;62.27;103056.50;5067940;28;45550;-82
2022/01/22 09:45:28;;;;;;;;;30.25;27.50;;;;;6.88;62.81;103015.56;5065393;28;45410;-78
2022/01/22 09:47:54;;;;;;;;;36.50;30.75;;;;;7.12;62.39;103050.19;5066404;28;46540;-79
2022/01/22 09:50:23;;;;;;;;;40.25;32.75;;;;;6.53;61.76;102948.03;5067470;28;45362;-79
2022/01/22 09:52:50;;;;;;;;;34.25;33.25;;;;;6.82;62.21;102989.94;5071604;27;45429;-84
2022/01/22 09:55:16;;;;;;;;;34.75;32.75;;;;;7.45;62.04;103105.41;5063810;27;45551;-78
2022/01/22 09:57:42;;;;;;;;;33.50;29.75;;;;;7.32;62.61;103086.31;5063947;28;45785;-84
2022/01/22 10:00:13;;;;;;;;;42.00;33.00;;;;;7.46;62.92;103116.00;5087092;27;45408;-81
2022/01/22 10:02:45;;;;;;;;;32.75;31.00;;;;;7.46;61.46;103104.59;5109265;27;45585;-84
2022/01/22 10:05:33;;;;;;;;;37.50;35.00;;;;;7.56;62.62;103123.56;5124013;27;45465;-85
2022/01/22 10:08:17;;;;;;;;;37.25;36.00;;;;;7.60;62.30;103124.66;5109143;27;46466;-88
2022/01/22 10:10:45;;;;;;;;;40.75;32.00;;;;;7.64;61.51;103126.66;5126435;27;45486;-90
2022/01/22 10:13:10;;;;;;;;;43.50;37.25;;;;;7.70;61.99;103126.97;5130967;27;45624;-79
2022/01/22 10:15:38;;;;;;;;;33.50;31.25;;;;;7.61;61.23;103094.97;5126414;27;45457;-83
2022/01/22 10:18:03;;;;;;;;;33.50;31.00;;;;;7.77;60.54;103116.03;5108215;27;47775;-81
2022/01/22 10:20:39;;;;;;;;;38.00;33.75;;;;;7.86;61.63;103128.75;5125811;27;45733;-81
2022/01/22 10:23:19;;;;;;;;;35.25;27.50;;;;;7.72;60.35;103102.66;5129610;27;45748;-83
2022/01/22 10:25:51;;;;;;;;;35.50;31.50;;;;;7.80;61.27;103102.16;5129762;27;45644;-82
2022/01/22 10:28:21;;;;;;;;;39.50;32.75;;;;;7.97;61.18;103130.25;5130049;27;47889;-81
2022/01/22 10:30:52;;;;;;;;;26.75;26.75;;;;;7.97;60.53;103132.88;5136235;27;45488;-79
2022/01/22 10:33:42;;;;;;;;;34.50;32.50;;;;;7.99;60.65;103139.13;5138082;27;45249;-79
2022/01/22 10:36:20;;;;;;;;;34.25;29.50;;;;;7.98;60.82;103130.34;5129015;27;45541;-78
2022/01/22 10:38:49;;;;;;;;;32.25;26.00;;;;;8.08;60.59;103130.84;5134433;27;45532;-79
2022/01/22 10:41:18;;;;;;;;;31.75;28.50;;;;;7.82;59.74;103079.56;5133597;27;45574;-78
2022/01/22 10:43:54;;;;;;;;;32.50;30.75;;;;;8.09;60.11;103128.31;5130828;27;45668;-77
2022/01/22 10:49:22;;;;;;;;;42.00;33.75;;;;;8.04;59.97;103108.81;5078049;27;46509;-79
2022/01/22 10:51:50;;;;;;;;;31.25;30.25;;;;;8.19;60.06;103135.91;5075229;27;45828;-80
2022/01/22 10:54:17;;;;;;;;;41.25;37.25;;;;;8.14;59.97;103119.00;5075550;28;45324;-82
2022/01/22 10:56:44;;;;;;;;;32.25;26.75;;;;;8.11;60.06;103113.59;5078004;27;45299;-80
2022/01/22 10:59:11;;;;;;;;;30.50;23.50;;;;;8.13;59.91;103125.06;5076124;27;45567;-79
2022/01/22 11:01:59;;;;;;;;;34.25;31.50;;;;;8.00;59.86;103091.06;5076231;28;45488;-79
2022/01/22 11:04:40;;;;;;;;;34.75;28.75;;;;;8.26;59.38;103118.75;5067914;28;45493;-78
2022/01/22 11:07:08;;;;;;;;;22.25;21.25;;;;;7.99;59.43;103069.16;5077495;28;45491;-81
2022/01/22 11:09:34;;;;;;;;;39.50;36.75;;;;;7.79;59.28;103048.78;5080534;27;45709;-82
2022/01/22 11:12:03;;;;;;;;;29.75;27.50;;;;;8.13;59.52;103101.44;5075968;28;45631;-81
2022/01/22 11:14:33;;;;;;;;;28.75;24.50;;;;;8.30;59.07;103128.63;5076806;28;45568;-78
2022/01/22 11:17:00;;;;;;;;;23.25;22.75;;;;;8.33;59.29;103127.88;5075757;27;45537;-81
2022/01/22 11:19:33;;;;;;;;;28.25;27.50;;;;;7.75;58.43;103028.47;5074822;28;45537;-83
2022/01/22 11:22:09;;;;;;;;;34.25;32.00;;;;;8.25;58.95;103094.22;5072121;28;45347;-79
2022/01/22 11:24:41;;;;;;;;;28.25;23.00;;;;;7.74;59.08;103020.50;5073719;27;45518;-77
2022/01/22 11:27:10;;;;;;;;;26.75;23.00;;;;;8.29;59.20;103121.56;5128896;27;45388;-82
2022/01/22 11:29:49;;;;;;;;;31.25;28.75;;;;;8.26;58.90;103103.00;5111644;27;47457;-84
2022/01/22 11:32:17;;;;;;;;;36.00;29.25;;;;;8.26;59.17;103110.88;5129095;27;45433;-84
2022/01/22 11:34:45;;;;;;;;;32.75;32.00;;;;;7.98;58.84;103064.72;5130961;27;45386;-83
2022/01/22 11:37:29;;;;;;;;;36.75;32.00;;;;;8.28;58.84;103099.66;5133422;27;45401;-83
2022/01/22 11:40:13;;;;;;;;;28.00;27.00;;;;;8.35;58.61;103107.88;5128896;27;45859;-82
2022/01/22 11:43:08;;;;;;;;;33.25;28.25;;;;;8.07;58.94;103045.06;5133379;27;45553;-81
2022/01/22 11:45:55;;;;;;;;;35.00;27.50;;;;;8.35;58.41;103098.28;5135955;27;45356;-82
2022/01/22 11:48:20;;;;;;;;;34.75;26.25;;;;;8.40;58.83;103094.19;5136397;27;45541;-92
2022/01/22 11:50:48;;;;;;;;;32.50;28.75;;;;;8.33;58.69;103064.84;5142354;27;45357;-82
2022/01/22 11:53:34;;;;;;;;;33.50;31.50;;;;;8.32;58.36;103060.44;5143244;27;45335;-86
2022/01/22 11:56:12;;;;;;;;;36.75;32.00;;;;;8.26;58.14;103047.84;5140342;27;45488;-80
2022/01/22 11:58:55;;;;;;;;;38.50;30.50;;;;;8.54;58.63;103098.44;5135506;27;45522;-83
2022/01/22 12:01:52;;;;;;;;;33.00;27.50;;;;;8.55;58.58;103091.47;5132683;27;45608;-84
2022/01/22 12:04:20;;;;;;;;;28.50;24.75;;;;;8.44;57.97;103069.88;5135855;27;45380;-84
2022/01/22 12:07:01;;;;;;;;;30.00;27.50;;;;;8.55;58.60;103083.59;5137271;27;45489;-84
2022/01/22 12:09:30;;;;;;;;;25.00;23.25;;;;;8.39;58.52;103044.22;5132619;27;45410;-84
2022/01/22 12:14:50;;;;;;;;;23.50;23.50;;;;;8.52;58.05;103037.06;5133855;27;45410;-81
2022/01/22 12:17:34;;;;;;;;;36.75;32.50;;;;;8.62;57.99;103046.31;5131594;27;45439;-83
2022/01/22 12:22:35;;;;;;;;;22.50;21.25;;;;;8.76;57.65;103070.69;5136060;27;45975;-83
2022/01/22 12:25:02;;;;;;;;;25.75;18.00;;;;;8.66;57.32;103069.31;5112400;27;45530;-85
2022/01/22 12:27:49;;;;;;;;;35.25;29.00;;;;;8.31;57.80;103006.09;5116160;27;45690;-82
2022/01/22 12:30:17;;;;;;;;;35.25;30.75;;;;;8.71;58.13;103061.66;5129866;27;45328;-81
2022/01/22 12:32:44;;;;;;;;;30.50;29.25;;;;;8.57;58.27;103039.94;5134543;27;45437;-81
2022/01/22 12:35:14;;;;;;;;;35.25;33.00;;;;;8.69;57.32;103055.44;5135385;27;45703;-81
2022/01/22 12:37:43;;;;;;;;;33.00;31.00;;;;;8.53;58.10;103030.06;5139361;27;45296;-81
2022/01/22 12:40:10;;;;;;;;;38.75;32.25;;;;;8.62;58.28;103027.91;5136022;27;45664;-81
2022/01/22 12:42:52;;;;;;;;;39.00;37.75;;;;;8.78;57.76;103050.66;5132134;27;46556;-82
2022/01/22 12:45:20;;;;;;;;;43.75;36.00;;;;;8.39;57.47;102975.94;5133236;27;45394;-81
2022/01/22 12:47:47;;;;;;;;;35.75;28.25;;;;;8.81;57.71;103043.81;5134013;27;45437;-81
2022/01/22 12:50:13;;;;;;;;;30.75;29.50;;;;;8.85;57.45;103044.91;5135453;27;45455;-78
2022/01/22 12:52:41;;;;;;;;;27.00;25.25;;;;;8.61;57.66;103002.47;5125795;27;46679;-79
2022/01/22 12:55:25;;;;;;;;;32.75;29.25;;;;;8.72;57.98;103017.06;5129949;27;47202;-79